Time;durP1;ratioP1;P1;durP2;ratioP2;P2;SDS_P1;SDS_P2;PMS_P1;PMS_P2;Temp;Humidity;BMP_temperature;BMP_pressure;BME280_temperature;BME280_humidity;BME280_pressure;Samples;Min_cycle;Max_cycle;Signal;HPM_P1;HPM_P2
2022/01/21 00:01:34;;;;;;;8.27;5.90;;;;;;;0.48;100.00;101776.72;5011795;28;20652;-45
2022/01/21 00:04:01;;;;;;;10.00;5.90;;;;;;;0.51;100.00;101769.25;5022510;28;20188;-45
2022/01/21 00:06:26;;;;;;;8.73;5.07;;;;;;;0.54;100.00;101769.41;5020330;28;20584;-45
2022/01/21 00:08:52;;;;;;;8.07;5.90;;;;;;;0.58;100.00;101765.38;5016469;28;20269;-45
2022/01/21 00:11:19;;;;;;;12.07;6.17;;;;;;;0.63;100.00;101765.63;5013407;28;20230;-45
2022/01/21 00:13:45;;;;;;;8.47;5.73;;;;;;;0.63;100.00;101769.03;5017582;28;20206;-45
2022/01/21 00:16:14;;;;;;;10.83;5.73;;;;;;;0.64;100.00;101765.72;5019475;28;20193;-46
2022/01/21 00:18:55;;;;;;;9.10;5.07;;;;;;;0.63;100.00;101769.03;5013478;28;20311;-46
2022/01/21 00:32:19;;;;;;;11.07;6.03;;;;;;;0.47;100.00;101774.97;5017093;28;20257;-46
2022/01/21 00:34:45;;;;;;;10.57;5.70;;;;;;;0.45;100.00;101764.69;5018300;28;20215;-44
2022/01/21 00:37:10;;;;;;;12.57;6.03;;;;;;;0.45;100.00;101757.03;5014272;28;20192;-45
2022/01/21 00:39:36;;;;;;;11.43;5.50;;;;;;;0.44;100.00;101752.75;5018117;28;20204;-45
2022/01/21 00:42:30;;;;;;;10.43;5.63;;;;;;;0.43;100.00;101758.66;5018031;28;20188;-46
2022/01/21 00:45:00;;;;;;;7.30;5.13;;;;;;;0.40;100.00;101767.75;5015608;28;20189;-45
2022/01/21 00:47:26;;;;;;;11.53;5.73;;;;;;;0.38;100.00;101769.38;5015246;28;20271;-47
2022/01/21 00:49:52;;;;;;;9.60;5.57;;;;;;;0.39;100.00;101760.91;5014769;28;20603;-45
2022/01/21 00:52:17;;;;;;;9.50;5.60;;;;;;;0.37;100.00;101768.47;5015422;28;20211;-45
2022/01/21 00:54:42;;;;;;;12.10;6.10;;;;;;;0.37;100.00;101768.47;5025484;28;20203;-47
2022/01/21 00:57:08;;;;;;;9.67;5.80;;;;;;;0.37;100.00;101770.16;5016441;28;20264;-45
2022/01/21 00:59:34;;;;;;;11.33;6.03;;;;;;;0.39;100.00;101771.09;5021028;28;20213;-46
2022/01/21 01:01:59;;;;;;;12.47;5.60;;;;;;;0.38;100.00;101769.38;5026264;28;20270;-46
2022/01/21 01:04:25;;;;;;;10.70;5.50;;;;;;;0.38;100.00;101771.91;5001989;28;20614;-46
2022/01/21 01:06:50;;;;;;;11.83;5.90;;;;;;;0.38;100.00;101782.09;5018004;28;20570;-45
2022/01/21 01:09:16;;;;;;;10.60;5.23;;;;;;;0.38;100.00;101787.19;5021086;28;20792;-46
2022/01/21 01:19:56;;;;;;;12.67;6.43;;;;;;;0.35;100.00;101802.31;5022572;28;20332;-45
2022/01/21 01:22:28;;;;;;;12.13;6.47;;;;;;;0.37;100.00;101800.72;5018313;28;20186;-45
2022/01/21 01:27:41;;;;;;;11.97;6.77;;;;;;;0.34;100.00;101795.44;5027417;28;20260;-47
2022/01/21 01:30:10;;;;;;;12.30;6.43;;;;;;;0.31;100.00;101798.69;5008299;28;20194;-47
2022/01/21 01:32:36;;;;;;;9.33;5.67;;;;;;;0.26;100.00;101803.50;5023528;28;20220;-45
2022/01/21 01:35:02;;;;;;;12.53;6.23;;;;;;;0.23;100.00;101808.41;5027011;28;20302;-46
2022/01/21 01:40:11;;;;;;;9.67;5.73;;;;;;;0.19;100.00;101809.06;5026593;28;20720;-46
2022/01/21 01:50:50;;;;;;;10.30;5.40;;;;;;;0.07;100.00;101808.34;5024287;28;20263;-47
2022/01/21 01:53:19;;;;;;;11.73;5.57;;;;;;;0.06;100.00;101796.41;5014769;28;20307;-46
2022/01/21 01:55:44;;;;;;;12.00;5.57;;;;;;;0.04;100.00;101796.28;5001301;28;20234;-47
2022/01/21 01:58:12;;;;;;;9.37;5.27;;;;;;;0.04;100.00;101793.75;5023979;28;20237;-46
2022/01/21 02:00:39;;;;;;;8.77;5.57;;;;;;;0.06;100.00;101797.28;5018084;28;20233;-46
2022/01/21 02:03:06;;;;;;;9.07;5.53;;;;;;;0.11;100.00;101798.44;5001415;28;20194;-46
2022/01/21 02:05:31;;;;;;;9.57;5.27;;;;;;;0.18;100.00;101799.66;5001220;28;20591;-46
2022/01/21 02:07:57;;;;;;;10.60;5.27;;;;;;;0.27;100.00;101797.63;5019679;28;20209;-46
2022/01/21 02:10:22;;;;;;;10.23;5.30;;;;;;;0.35;100.00;101787.88;5024629;28;20634;-46
2022/01/21 02:12:48;;;;;;;11.90;5.80;;;;;;;0.41;100.00;101790.78;5001310;28;20189;-46
2022/01/21 02:15:13;;;;;;;10.37;5.77;;;;;;;0.48;100.00;101778.38;5017739;28;20211;-46
2022/01/21 02:22:50;;;;;;;9.20;5.40;;;;;;;0.61;100.00;101783.38;5016384;28;20203;-46
2022/01/21 02:25:18;;;;;;;13.03;5.73;;;;;;;0.64;100.00;101787.78;5023992;28;20259;-46
2022/01/21 02:27:47;;;;;;;11.20;5.87;;;;;;;0.65;100.00;101787.00;5016166;28;20214;-46
2022/01/21 02:30:20;;;;;;;9.47;5.80;;;;;;;0.64;100.00;101782.69;5018298;28;20198;-46
2022/01/21 02:32:48;;;;;;;10.50;5.60;;;;;;;0.60;100.00;101784.19;5006685;28;20697;-47
2022/01/21 02:35:14;;;;;;;10.53;5.23;;;;;;;0.56;100.00;101793.31;5018548;28;20271;-45
2022/01/21 02:37:40;;;;;;;8.13;5.30;;;;;;;0.54;100.00;101789.78;5017608;28;20282;-45
2022/01/21 02:40:07;;;;;;;8.50;5.40;;;;;;;0.54;100.00;101791.47;5020254;28;20527;-46
2022/01/21 02:42:33;;;;;;;8.77;5.17;;;;;;;0.56;100.00;101797.53;5024513;28;20172;-46
2022/01/21 02:44:59;;;;;;;10.03;5.20;;;;;;;0.58;100.00;101795.97;5022922;28;20258;-46
2022/01/21 02:47:24;;;;;;;10.23;6.10;;;;;;;0.61;100.00;101806.31;5013499;28;20272;-46
2022/01/21 02:49:50;;;;;;;12.07;5.93;;;;;;;0.64;100.00;101811.56;5019533;28;20184;-46
2022/01/21 02:52:18;;;;;;;13.07;6.50;;;;;;;0.66;100.00;101819.31;5017507;28;20200;-46
2022/01/21 02:54:44;;;;;;;9.90;5.70;;;;;;;0.69;100.00;101817.81;5020354;28;20204;-46
2022/01/21 02:57:09;;;;;;;8.60;5.70;;;;;;;0.72;100.00;101819.66;5021597;28;20254;-46
2022/01/21 02:59:35;;;;;;;8.70;5.50;;;;;;;0.74;100.00;101818.97;5021442;28;20255;-46
2022/01/21 03:02:03;;;;;;;8.50;5.37;;;;;;;0.78;100.00;101825.09;5004281;28;20191;-44
2022/01/21 03:05:14;;;;;;;10.77;5.33;;;;;;;0.80;100.00;101827.72;5025597;28;20183;-46
2022/01/21 03:07:17;;;;;;;7.97;5.27;;;;;;;0.83;100.00;101830.44;5005315;28;20320;-45
2022/01/21 03:09:42;;;;;;;10.57;6.10;;;;;;;0.83;100.00;101820.25;5012550;28;20277;-45
2022/01/21 03:12:07;;;;;;;9.63;6.07;;;;;;;0.81;100.00;101825.28;5032193;28;20456;-46
2022/01/21 03:14:33;;;;;;;8.93;5.90;;;;;;;0.79;100.00;101825.97;5032926;28;20271;-45
2022/01/21 03:16:59;;;;;;;10.30;5.93;;;;;;;0.72;100.00;101823.09;5018060;28;20273;-45
2022/01/21 03:19:24;;;;;;;10.50;6.00;;;;;;;0.63;100.00;101821.69;5022952;28;20199;-46
2022/01/21 03:21:50;;;;;;;7.60;5.20;;;;;;;0.51;100.00;101814.22;5026701;28;20723;-45
2022/01/21 03:24:15;;;;;;;11.00;5.70;;;;;;;0.38;100.00;101823.72;5024740;28;20184;-45
2022/01/21 03:26:40;;;;;;;8.90;5.80;;;;;;;0.23;100.00;101813.50;5018275;28;20215;-44
2022/01/21 03:29:06;;;;;;;9.17;5.40;;;;;;;0.08;100.00;101813.50;5021654;28;20208;-49
2022/01/21 03:31:33;;;;;;;9.87;5.63;;;;;;;-0.04;100.00;101812.81;5017028;28;20771;-46
2022/01/21 03:33:59;;;;;;;10.00;5.53;;;;;;;-0.17;100.00;101826.44;5025102;28;20195;-45
2022/01/21 03:36:27;;;;;;;8.97;5.20;;;;;;;-0.26;100.00;101825.91;5015171;28;20191;-46
2022/01/21 03:38:52;;;;;;;7.87;5.60;;;;;;;-0.36;100.00;101824.47;5018263;28;20221;-46
2022/01/21 03:41:18;;;;;;;7.63;5.53;;;;;;;-0.45;100.00;101821.38;5020612;28;20188;-46
2022/01/21 03:43:43;;;;;;;12.17;5.87;;;;;;;-0.54;100.00;101822.56;5025031;28;20201;-46
2022/01/21 03:46:09;;;;;;;9.20;5.57;;;;;;;-0.61;100.00;101825.53;5017078;28;20188;-46
2022/01/21 03:48:35;;;;;;;8.10;5.87;;;;;;;-0.71;100.00;101830.81;5017498;28;20219;-45
2022/01/21 03:51:00;;;;;;;11.30;6.13;;;;;;;-0.78;100.00;101827.03;5021206;28;20230;-46
2022/01/21 03:53:26;;;;;;;10.50;6.23;;;;;;;-0.85;100.00;101825.75;5003936;28;20193;-45
2022/01/21 03:55:51;;;;;;;11.63;5.60;;;;;;;-0.91;100.00;101822.84;5023555;28;20781;-45
2022/01/21 03:58:17;;;;;;;8.37;5.30;;;;;;;-0.97;100.00;101828.41;5022169;28;20210;-45
2022/01/21 04:00:46;;;;;;;9.87;5.40;;;;;;;-1.02;100.00;101829.78;5016294;28;20323;-46
2022/01/21 04:03:12;;;;;;;12.17;5.20;;;;;;;-1.06;100.00;101829.50;5019825;28;20189;-46
2022/01/21 04:05:38;;;;;;;8.43;5.93;;;;;;;-1.10;100.00;101823.34;5023665;28;20255;-45
2022/01/21 04:08:05;;;;;;;9.33;5.70;;;;;;;-1.14;100.00;101827.34;5001020;28;20210;-45
2022/01/21 04:10:31;;;;;;;10.93;5.63;;;;;;;-1.17;100.00;101834.78;5016956;28;20223;-45
2022/01/21 04:12:57;;;;;;;8.00;5.10;;;;;;;-1.18;100.00;101837.22;5016777;28;20266;-45
2022/01/21 04:15:23;;;;;;;11.30;5.60;;;;;;;-1.21;100.00;101837.03;5015800;28;20189;-46
2022/01/21 04:17:48;;;;;;;8.00;5.00;;;;;;;-1.23;100.00;101837.81;4998763;28;20617;-45
2022/01/21 04:20:14;;;;;;;10.30;5.67;;;;;;;-1.24;100.00;101848.75;5019636;28;20278;-44
2022/01/21 04:22:40;;;;;;;7.60;4.90;;;;;;;-1.25;100.00;101844.44;5020204;28;20188;-45
2022/01/21 04:25:07;;;;;;;9.17;5.17;;;;;;;-1.21;100.00;101842.09;5003962;28;20567;-45
2022/01/21 04:27:32;;;;;;;10.00;5.80;;;;;;;-1.17;100.00;101844.94;5015681;28;20225;-46
2022/01/21 04:29:58;;;;;;;10.40;4.70;;;;;;;-1.08;100.00;101855.69;5021370;28;20203;-45
2022/01/21 04:32:23;;;;;;;8.80;5.77;;;;;;;-0.98;100.00;101857.13;5015459;28;20235;-45
2022/01/21 04:34:49;;;;;;;8.80;5.60;;;;;;;-0.88;100.00;101861.16;5013914;28;20205;-47
2022/01/21 04:37:16;;;;;;;10.40;5.70;;;;;;;-0.80;100.00;101857.44;5021063;28;20184;-46
2022/01/21 04:39:54;;;;;;;8.77;5.50;;;;;;;-0.72;100.00;101862.09;5018637;28;20239;-46
2022/01/21 04:47:38;;;;;;;7.47;5.73;;;;;;;-0.54;100.00;101857.31;5018551;28;20218;-45
2022/01/21 04:50:12;;;;;;;11.07;5.37;;;;;;;-0.53;100.00;101851.44;5002831;28;20608;-46
2022/01/21 04:52:38;;;;;;;10.03;6.07;;;;;;;-0.55;100.00;101855.53;5014073;28;20299;-45
2022/01/21 04:55:05;;;;;;;10.37;6.00;;;;;;;-0.62;100.00;101857.69;5015826;28;20199;-45
2022/01/21 04:57:31;;;;;;;12.33;5.70;;;;;;;-0.70;100.00;101853.81;5011246;28;20195;-46
2022/01/21 04:59:56;;;;;;;8.60;5.80;;;;;;;-0.79;100.00;101866.81;4994937;28;20201;-46
2022/01/21 05:02:23;;;;;;;10.73;6.27;;;;;;;-0.88;100.00;101860.28;5012202;28;20535;-46
2022/01/21 05:04:49;;;;;;;10.47;5.50;;;;;;;-0.96;100.00;101860.66;4998799;28;20770;-46
2022/01/21 05:07:19;;;;;;;10.37;6.60;;;;;;;-1.03;100.00;101860.16;5010498;28;20285;-46
2022/01/21 05:09:45;;;;;;;18.80;16.03;;;;;;;-1.10;100.00;101864.88;5014790;28;20231;-46
2022/01/21 05:12:13;;;;;;;13.70;11.97;;;;;;;-1.16;100.00;101869.56;5016434;28;20304;-44
2022/01/21 05:15:05;;;;;;;13.87;11.27;;;;;;;-1.23;100.00;101864.88;5012979;28;20219;-45
2022/01/21 05:17:30;;;;;;;14.20;11.50;;;;;;;-1.29;100.00;101867.00;5016175;28;20185;-47
2022/01/21 05:19:56;;;;;;;16.67;10.60;;;;;;;-1.34;100.00;101881.97;4998974;28;20215;-44
2022/01/21 05:22:21;;;;;;;12.47;9.57;;;;;;;-1.39;100.00;101886.75;4992522;28;20200;-46
2022/01/21 05:24:47;;;;;;;11.63;8.00;;;;;;;-1.42;100.00;101883.09;5015216;28;20645;-46
2022/01/21 05:27:13;;;;;;;10.27;7.00;;;;;;;-1.45;100.00;101890.53;5024848;28;20200;-46
2022/01/21 05:29:40;;;;;;;10.70;6.47;;;;;;;-1.49;100.00;101888.56;5015136;28;20213;-45
2022/01/21 05:32:06;;;;;;;8.27;6.87;;;;;;;-1.54;100.00;101891.69;5011933;28;20220;-45
2022/01/21 05:34:33;;;;;;;9.33;6.40;;;;;;;-1.56;100.00;101894.91;5017800;28;20195;-45
2022/01/21 05:36:58;;;;;;;11.13;8.17;;;;;;;-1.59;100.00;101907.38;5011012;28;20193;-46
2022/01/21 05:39:24;;;;;;;12.47;9.00;;;;;;;-1.63;100.00;101907.94;5013657;28;20224;-45
2022/01/21 05:41:51;;;;;;;9.87;8.60;;;;;;;-1.66;100.00;101903.56;5012843;28;20259;-45
2022/01/21 05:46:55;;;;;;;11.60;7.53;;;;;;;-1.73;100.00;101897.19;5016325;28;20292;-45
2022/01/21 05:49:21;;;;;;;7.17;6.33;;;;;;;-1.78;100.00;101906.16;5021472;28;20290;-46
2022/01/21 05:51:47;;;;;;;8.10;6.00;;;;;;;-1.84;100.00;101899.00;5027108;28;20220;-45
2022/01/21 05:54:13;;;;;;;11.20;6.10;;;;;;;-1.87;100.00;101905.53;5027264;28;20194;-45
2022/01/21 05:56:39;;;;;;;8.73;6.10;;;;;;;-1.91;100.00;101904.44;5017053;28;20570;-45
2022/01/21 05:59:06;;;;;;;9.70;5.77;;;;;;;-1.94;100.00;101901.69;5013756;28;20205;-45
2022/01/21 06:01:33;;;;;;;8.87;6.00;;;;;;;-1.95;100.00;101911.72;5027094;28;20206;-44
2022/01/21 06:03:59;;;;;;;7.50;6.00;;;;;;;-1.98;100.00;101911.53;5031602;28;20539;-46
2022/01/21 06:06:24;;;;;;;10.90;5.63;;;;;;;-2.02;100.00;101920.56;5017048;28;20253;-45
2022/01/21 06:08:50;;;;;;;13.57;8.03;;;;;;;-2.05;100.00;101915.31;5026989;28;20215;-45
2022/01/21 06:11:16;;;;;;;13.10;10.37;;;;;;;-2.07;100.00;101925.34;5036626;28;20212;-45
2022/01/21 06:13:44;;;;;;;16.67;10.53;;;;;;;-2.09;100.00;101920.94;5005296;28;20226;-46
2022/01/21 06:16:09;;;;;;;14.27;9.70;;;;;;;-2.12;100.00;101916.56;5017447;28;20216;-45
2022/01/21 06:18:35;;;;;;;13.73;8.77;;;;;;;-2.15;100.00;101927.34;5020241;28;20752;-45
2022/01/21 06:21:00;;;;;;;13.10;8.63;;;;;;;-2.15;100.00;101924.81;5024690;28;21552;-45
2022/01/21 06:23:26;;;;;;;11.13;8.37;;;;;;;-2.15;100.00;101926.47;5030957;28;20300;-45
2022/01/21 06:25:52;;;;;;;14.43;9.30;;;;;;;-2.14;100.00;101928.25;5024423;28;20188;-46
2022/01/21 06:28:17;;;;;;;13.63;8.83;;;;;;;-2.12;100.00;101935.94;5019087;28;20262;-44
2022/01/21 06:30:43;;;;;;;15.83;9.80;;;;;;;-2.09;100.00;101944.66;5015433;28;20193;-45
2022/01/21 06:33:09;;;;;;;16.83;11.60;;;;;;;-2.03;100.00;101955.22;5014857;28;20195;-45
2022/01/21 06:35:34;;;;;;;19.77;13.20;;;;;;;-1.97;100.00;101951.38;5019888;28;20192;-45
2022/01/21 06:38:00;;;;;;;21.33;15.00;;;;;;;-1.93;100.00;101945.69;5016188;28;20208;-45
2022/01/21 06:40:25;;;;;;;20.77;14.23;;;;;;;-1.87;100.00;101947.00;5016383;28;20198;-45
2022/01/21 06:42:52;;;;;;;20.43;12.20;;;;;;;-1.80;100.00;101948.31;5033696;28;20194;-45
2022/01/21 06:45:18;;;;;;;17.30;10.33;;;;;;;-1.71;100.00;101953.13;5021373;28;20948;-45
2022/01/21 06:47:44;;;;;;;15.23;8.57;;;;;;;-1.63;100.00;101956.19;5011586;28;20214;-45
2022/01/21 06:50:09;;;;;;;11.67;8.10;;;;;;;-1.55;100.00;101950.84;5012596;28;20185;-45
2022/01/21 06:52:35;;;;;;;11.57;8.23;;;;;;;-1.46;100.00;101963.28;5010233;28;20219;-45
2022/01/21 06:55:03;;;;;;;9.73;8.03;;;;;;;-1.39;100.00;101957.84;5014253;28;20203;-48
2022/01/21 06:57:29;;;;;;;11.67;7.20;;;;;;;-1.33;100.00;101959.91;5022714;28;20773;-47
2022/01/21 06:59:55;;;;;;;9.80;7.20;;;;;;;-1.26;100.00;101964.59;5012656;28;20201;-44
2022/01/21 07:02:20;;;;;;;8.47;6.53;;;;;;;-1.19;100.00;101962.50;5017005;28;20196;-47
2022/01/21 07:04:48;;;;;;;9.30;6.63;;;;;;;-1.15;100.00;101967.88;5015971;28;20259;-46
2022/01/21 07:07:14;;;;;;;8.80;6.73;;;;;;;-1.10;100.00;101966.53;5020374;28;20194;-46
2022/01/21 07:09:40;;;;;;;11.53;7.03;;;;;;;-1.04;100.00;101973.66;5027697;28;20578;-46
2022/01/21 07:12:05;;;;;;;10.03;6.43;;;;;;;-1.00;100.00;101962.91;5040720;28;20206;-46
2022/01/21 07:14:31;;;;;;;11.90;7.03;;;;;;;-0.94;100.00;101975.16;5046527;28;20195;-46
2022/01/21 07:16:56;;;;;;;9.13;6.70;;;;;;;-0.90;100.00;101972.00;5037304;28;20655;-46
2022/01/21 07:19:21;;;;;;;8.83;6.57;;;;;;;-0.86;100.00;101963.81;5032095;28;20301;-47
2022/01/21 07:21:47;;;;;;;14.10;7.43;;;;;;;-0.82;100.00;101963.22;5034110;28;20247;-46
2022/01/21 07:24:12;;;;;;;10.53;7.37;;;;;;;-0.79;100.00;101971.06;5009196;28;20635;-46
2022/01/21 07:26:38;;;;;;;8.83;6.60;;;;;;;-0.77;100.00;101969.50;5030551;28;20185;-45
2022/01/21 07:29:03;;;;;;;12.10;7.53;;;;;;;-0.75;100.00;101958.50;5028667;28;20234;-47
2022/01/21 07:31:29;;;;;;;10.40;7.50;;;;;;;-0.74;100.00;101966.25;5034342;28;20216;-45
2022/01/21 07:33:54;;;;;;;12.33;8.03;;;;;;;-0.70;100.00;101958.06;5023072;28;20218;-46
2022/01/21 07:36:20;;;;;;;11.97;8.07;;;;;;;-0.66;100.00;101966.75;5034954;28;20197;-46
2022/01/21 07:38:45;;;;;;;10.20;7.60;;;;;;;-0.62;100.00;101973.81;5041668;28;20684;-45
2022/01/21 07:41:10;;;;;;;10.50;8.30;;;;;;;-0.58;100.00;101974.88;5024482;28;20220;-45
2022/01/21 07:43:36;;;;;;;10.83;8.43;;;;;;;-0.53;100.00;101970.97;5030978;28;20188;-45
2022/01/21 07:46:01;;;;;;;11.93;8.63;;;;;;;-0.48;100.00;101973.03;5011944;28;20557;-45
2022/01/21 07:48:27;;;;;;;12.23;8.70;;;;;;;-0.43;100.00;101982.59;5008332;28;20213;-45
2022/01/21 07:50:52;;;;;;;10.63;8.47;;;;;;;-0.36;100.00;101982.19;5016880;28;20189;-46
2022/01/21 07:53:18;;;;;;;13.67;8.87;;;;;;;-0.29;100.00;101986.88;5022803;28;20193;-46
2022/01/21 07:55:50;;;;;;;12.87;9.90;;;;;;;-0.20;100.00;101989.13;5032221;28;20489;-45
2022/01/21 07:58:15;;;;;;;12.87;9.83;;;;;;;-0.11;100.00;101994.78;5018241;28;20201;-45
2022/01/21 08:00:41;;;;;;;14.10;9.10;;;;;;;-0.02;100.00;101987.72;5010189;28;20626;-46
2022/01/21 08:03:06;;;;;;;13.70;9.33;;;;;;;0.07;100.00;101989.09;5025282;28;20617;-46
2022/01/21 08:05:34;;;;;;;14.50;8.43;;;;;;;0.15;100.00;101985.34;5023762;28;20195;-46
2022/01/21 08:07:59;;;;;;;12.87;7.90;;;;;;;0.23;100.00;101984.13;5010345;28;20239;-46
2022/01/21 08:10:25;;;;;;;9.57;7.37;;;;;;;0.30;100.00;101986.25;5012430;28;20221;-46
2022/01/21 08:12:50;;;;;;;10.20;7.10;;;;;;;0.40;100.00;101979.16;5015311;28;20298;-46
2022/01/21 08:15:16;;;;;;;9.93;7.43;;;;;;;0.48;100.00;101985.63;5028839;28;20198;-46
2022/01/21 08:17:42;;;;;;;10.97;7.30;;;;;;;0.54;100.00;101980.00;5010002;28;20210;-46
2022/01/21 08:20:08;;;;;;;11.93;7.00;;;;;;;0.59;100.00;101984.56;5016822;28;20186;-46
2022/01/21 08:22:33;;;;;;;10.63;7.10;;;;;;;0.69;100.00;101988.53;5015690;28;20604;-46
2022/01/21 08:24:59;;;;;;;9.07;6.93;;;;;;;0.75;100.00;101993.13;5009704;28;20185;-47
2022/01/21 08:27:24;;;;;;;10.13;6.07;;;;;;;0.85;100.00;101989.44;4999909;28;20194;-46
2022/01/21 08:29:50;;;;;;;9.33;6.43;;;;;;;0.94;100.00;101984.00;5015275;28;20556;-46
2022/01/21 08:32:17;;;;;;;11.43;6.77;;;;;;;0.98;100.00;101988.50;5026218;28;20211;-46
2022/01/21 08:34:42;;;;;;;12.57;7.03;;;;;;;1.01;100.00;101988.66;5032832;28;20219;-46
2022/01/21 08:37:08;;;;;;;9.30;7.20;;;;;;;1.03;100.00;101995.63;5014840;28;20639;-45
2022/01/21 08:39:33;;;;;;;11.03;6.73;;;;;;;1.10;100.00;102001.06;4992202;28;20664;-45
2022/01/21 08:41:59;;;;;;;8.00;6.83;;;;;;;1.17;100.00;101998.06;4998486;28;20234;-46
2022/01/21 08:44:25;;;;;;;9.37;6.60;;;;;;;1.23;100.00;102000.09;5023590;28;20210;-45
2022/01/21 08:46:50;;;;;;;7.97;7.00;;;;;;;1.27;100.00;102012.25;5015824;28;20645;-46
2022/01/21 08:49:19;;;;;;;8.70;6.93;;;;;;;1.28;100.00;102021.66;5026838;28;20286;-46
2022/01/21 08:51:51;;;;;;;7.57;6.77;;;;;;;1.26;100.00;102029.19;5020305;28;20224;-47
2022/01/21 08:54:18;;;;;;;7.23;6.07;;;;;;;1.24;100.00;102035.88;5020743;28;20187;-46
2022/01/21 08:56:45;;;;;;;10.73;6.10;;;;;;;1.19;100.00;102030.50;5020239;28;20199;-46
2022/01/21 08:59:11;;;;;;;6.80;5.90;;;;;;;1.14;100.00;102031.91;5026701;28;20210;-45
2022/01/21 09:01:36;;;;;;;8.83;6.10;;;;;;;1.11;100.00;102020.66;5031766;28;20199;-47
2022/01/21 09:04:02;;;;;;;10.43;6.97;;;;;;;1.14;100.00;102025.94;5014618;28;20257;-45
2022/01/21 09:06:29;;;;;;;10.20;7.23;;;;;;;1.20;100.00;102016.97;5033036;28;20237;-46
2022/01/21 09:08:56;;;;;;;12.13;7.70;;;;;;;1.32;100.00;102013.34;5017962;28;20223;-45
2022/01/21 09:11:22;;;;;;;14.67;8.23;;;;;;;1.48;100.00;102018.53;5029673;28;20218;-47
2022/01/21 09:13:47;;;;;;;13.67;8.50;;;;;;;1.62;100.00;101996.34;5036684;28;20709;-47
2022/01/21 09:16:15;;;;;;;12.73;8.37;;;;;;;1.78;100.00;102007.41;5025237;28;20200;-47
2022/01/21 09:18:48;;;;;;;15.03;9.23;;;;;;;1.92;100.00;102003.94;5026391;28;20209;-47
2022/01/21 09:21:16;;;;;;;15.53;9.47;;;;;;;2.06;100.00;101996.13;5020521;28;20186;-46
2022/01/21 09:23:42;;;;;;;12.83;9.73;;;;;;;2.13;100.00;102001.63;5029136;28;20230;-46
2022/01/21 09:26:09;;;;;;;13.57;8.30;;;;;;;2.17;100.00;102005.22;5009350;28;20651;-46
2022/01/21 09:28:35;;;;;;;13.90;8.43;;;;;;;2.21;100.00;101999.50;5018626;28;20218;-47
2022/01/21 09:31:01;;;;;;;12.50;8.27;;;;;;;2.23;100.00;101994.44;5029600;28;20592;-46
2022/01/21 09:33:27;;;;;;;14.37;7.83;;;;;;;2.25;100.00;102015.84;5043231;28;20205;-47
2022/01/21 09:35:52;;;;;;;10.57;7.43;;;;;;;2.28;100.00;102016.88;5029408;28;20191;-45
2022/01/21 09:38:19;;;;;;;10.90;7.47;;;;;;;2.37;100.00;102025.84;5043247;28;20560;-46
2022/01/21 09:40:48;;;;;;;9.23;7.20;;;;;;;2.48;100.00;102026.41;5014108;28;20207;-46
2022/01/21 09:43:15;;;;;;;13.23;8.07;;;;;;;2.55;100.00;102033.59;5039216;28;20229;-46
2022/01/21 09:45:41;;;;;;;8.63;7.47;;;;;;;2.65;100.00;102022.19;5034924;28;20192;-45
2022/01/21 09:48:09;;;;;;;14.97;8.57;;;;;;;2.69;100.00;102024.09;5040330;28;20286;-45
2022/01/21 09:50:35;;;;;;;9.10;7.43;;;;;;;2.73;100.00;102036.22;5034967;28;20188;-45
2022/01/21 09:53:01;;;;;;;11.20;7.10;;;;;;;2.78;100.00;102037.34;5028222;28;20214;-47
2022/01/21 09:55:26;;;;;;;9.93;7.07;;;;;;;2.83;100.00;102040.13;5031474;28;20612;-45
2022/01/21 09:57:54;;;;;;;11.23;7.57;;;;;;;2.93;100.00;102044.94;5036757;28;20253;-47
2022/01/21 10:00:22;;;;;;;10.97;7.57;;;;;;;3.04;100.00;102042.88;5038032;28;20191;-47
2022/01/21 10:02:49;;;;;;;10.87;7.47;;;;;;;3.12;100.00;102044.16;5032667;28;20185;-46
2022/01/21 10:05:15;;;;;;;9.30;7.17;;;;;;;3.20;100.00;102053.09;5039654;28;20193;-47
2022/01/21 10:07:45;;;;;;;10.17;7.93;;;;;;;3.32;100.00;102055.38;5029927;28;20627;-47
2022/01/21 10:10:10;;;;;;;7.97;6.53;;;;;;;3.38;100.00;102057.38;5032993;28;20180;-45
2022/01/21 10:12:39;;;;;;;12.07;7.03;;;;;;;3.45;100.00;102064.56;5034450;28;20256;-46
2022/01/21 10:15:07;;;;;;;10.00;6.20;;;;;;;3.48;100.00;102066.38;5037183;28;20999;-45
2022/01/21 10:17:32;;;;;;;9.03;6.77;;;;;;;3.58;100.00;102062.59;5039252;28;20191;-46
2022/01/21 10:20:16;;;;;;;10.80;6.70;;;;;;;3.68;100.00;102067.34;5041192;28;20202;-45
2022/01/21 10:23:08;;;;;;;10.20;6.60;;;;;;;3.73;100.00;102071.00;5038926;28;20208;-45
2022/01/21 10:25:37;;;;;;;9.57;5.73;;;;;;;3.81;100.00;102073.94;5024862;28;20262;-47
2022/01/21 10:28:14;;;;;;;8.27;6.63;;;;;;;3.88;100.00;102075.97;5015302;28;20326;-47
2022/01/21 10:30:42;;;;;;;8.57;6.03;;;;;;;3.95;100.00;102067.78;5011408;28;20233;-47
2022/01/21 10:33:23;;;;;;;10.47;6.23;;;;;;;4.03;100.00;102062.13;5033242;28;20238;-45
2022/01/21 10:35:51;;;;;;;9.67;6.80;;;;;;;4.07;100.00;102059.81;5039268;28;20186;-46
2022/01/21 10:38:29;;;;;;;11.67;7.00;;;;;;;4.05;100.00;102051.16;5038424;28;20261;-45
2022/01/21 10:41:09;;;;;;;13.10;6.73;;;;;;;4.03;100.00;102047.66;5016768;28;20188;-47
2022/01/21 10:43:34;;;;;;;11.63;6.73;;;;;;;4.02;100.00;102052.69;5026422;28;20190;-47
2022/01/21 10:46:00;;;;;;;10.90;6.03;;;;;;;4.04;100.00;102049.41;5021111;28;20222;-47
2022/01/21 10:48:31;;;;;;;6.93;5.87;;;;;;;4.11;100.00;102054.00;5016818;28;20671;-45
2022/01/21 10:51:17;;;;;;;9.03;6.20;;;;;;;4.15;100.00;102051.56;5022584;28;20188;-46
2022/01/21 10:53:43;;;;;;;8.83;6.13;;;;;;;4.17;100.00;102044.84;5013573;28;20265;-47
2022/01/21 10:56:17;;;;;;;12.57;6.70;;;;;;;4.16;100.00;102041.38;5036109;28;20716;-47
2022/01/21 10:58:51;;;;;;;11.90;7.27;;;;;;;4.25;100.00;102043.47;5022755;28;20564;-47
2022/01/21 11:01:18;;;;;;;8.03;6.73;;;;;;;4.36;100.00;102039.75;5013431;28;20177;-46
2022/01/21 11:03:57;;;;;;;12.73;7.47;;;;;;;4.48;100.00;102039.38;5022134;28;20644;-46
2022/01/21 11:06:25;;;;;;;12.40;7.53;;;;;;;4.55;100.00;102036.31;5015036;28;20183;-46
2022/01/21 11:08:50;;;;;;;10.30;6.37;;;;;;;4.65;100.00;102040.16;5020929;28;20208;-48
2022/01/21 11:11:22;;;;;;;9.07;6.53;;;;;;;4.68;100.00;102031.69;5036783;28;20219;-47
2022/01/21 11:13:48;;;;;;;12.07;6.40;;;;;;;4.72;100.00;102031.91;5023803;28;20244;-46
2022/01/21 11:16:20;;;;;;;9.77;6.03;;;;;;;4.72;100.00;102020.78;5033832;28;20183;-46
2022/01/21 11:18:58;;;;;;;8.50;6.70;;;;;;;4.72;100.00;102021.63;5016228;28;20290;-46
2022/01/21 11:21:39;;;;;;;8.80;6.67;;;;;;;4.76;100.00;102021.78;5011171;28;20211;-45
2022/01/21 11:24:06;;;;;;;8.67;6.20;;;;;;;4.90;100.00;102019.81;5034889;28;20643;-45
2022/01/21 11:26:32;;;;;;;10.87;6.23;;;;;;;4.99;100.00;102021.06;5019154;28;20224;-46
2022/01/21 11:28:58;;;;;;;9.77;6.53;;;;;;;5.02;100.00;102015.19;5028278;28;20350;-46
2022/01/21 11:31:27;;;;;;;11.03;6.37;;;;;;;5.11;100.00;102014.69;5015926;28;20211;-45
2022/01/21 11:33:53;;;;;;;11.23;5.87;;;;;;;5.19;100.00;102010.75;5016288;28;20722;-46
2022/01/21 11:36:18;;;;;;;7.10;5.27;;;;;;;5.25;100.00;102012.69;5002951;28;20188;-45
2022/01/21 11:38:45;;;;;;;9.40;5.80;;;;;;;5.27;100.00;102006.81;5019438;28;20300;-45
2022/01/21 11:41:16;;;;;;;11.73;6.03;;;;;;;5.21;100.00;102001.41;5018287;28;20183;-46
2022/01/21 11:43:55;;;;;;;8.43;5.10;;;;;;;5.10;100.00;102002.69;5027429;28;20627;-45
2022/01/21 11:46:39;;;;;;;8.23;4.70;;;;;;;4.93;100.00;102000.28;5012904;28;20193;-46
2022/01/21 11:49:17;;;;;;;7.97;5.03;;;;;;;4.74;100.00;102003.75;5027615;28;20227;-46
2022/01/21 11:51:42;;;;;;;8.20;5.00;;;;;;;4.60;100.00;101990.34;5010339;28;20266;-47
2022/01/21 11:54:13;;;;;;;8.90;5.07;;;;;;;4.64;100.00;101993.91;5010743;28;20198;-47
2022/01/21 11:56:46;;;;;;;8.07;5.10;;;;;;;4.71;100.00;101995.94;4993165;28;20195;-47
2022/01/21 11:59:26;;;;;;;10.83;5.53;;;;;;;4.79;100.00;102009.09;5035281;28;20223;-47
2022/01/21 12:01:53;;;;;;;9.80;5.47;;;;;;;4.84;100.00;102000.78;5020231;28;20181;-47
2022/01/21 12:04:31;;;;;;;10.17;5.23;;;;;;;4.96;100.00;102002.97;5011028;28;20193;-47